createdAt,value
2018-04-13T00:00:27.478Z,10.10
2018-04-13T00:02:54.919Z,10.00
2018-04-13T00:05:22.383Z,10.00
2018-04-13T00:07:49.838Z,10.00
2018-04-13T00:10:17.267Z,10.00
2018-04-13T00:12:44.769Z,9.90
2018-04-13T00:15:12.210Z,9.90
2018-04-13T00:17:39.647Z,9.90
2018-04-13T00:20:07.072Z,9.90
2018-04-13T00:22:35.312Z,9.70
2018-04-13T00:25:02.753Z,9.70
2018-04-13T00:27:30.211Z,9.70
2018-04-13T00:29:57.646Z,9.70
2018-04-13T00:32:25.071Z,9.60
2018-04-13T00:34:53.307Z,9.60
2018-04-13T00:37:20.743Z,9.60
2018-04-13T00:39:48.225Z,9.60
2018-04-13T00:42:15.661Z,9.50
2018-04-13T00:44:43.140Z,9.50
2018-04-13T00:47:10.570Z,9.50
2018-04-13T00:49:38.003Z,9.50
2018-04-13T00:52:06.208Z,9.40
2018-04-13T00:54:33.684Z,9.40
2018-04-13T00:57:01.194Z,9.40
2018-04-13T00:59:28.610Z,9.30
2018-04-13T01:01:56.044Z,9.30
2018-04-13T01:04:23.515Z,9.30
2018-04-13T01:06:50.972Z,9.30
2018-04-13T01:09:18.431Z,9.30
2018-04-13T01:11:45.855Z,9.20
2018-04-13T01:14:13.315Z,9.10
2018-04-13T01:16:41.515Z,9.10
2018-04-13T01:19:08.939Z,9.00
2018-04-13T01:21:36.376Z,9.10
2018-04-13T01:24:04.589Z,9.00
2018-04-13T01:26:32.010Z,8.90
2018-04-13T01:29:00.233Z,8.90
2018-04-13T01:31:27.684Z,8.90
2018-04-13T01:33:55.111Z,8.90
2018-04-13T01:36:22.540Z,8.80
2018-04-13T01:38:49.974Z,8.80
2018-04-13T01:41:17.533Z,8.80
2018-04-13T01:43:44.960Z,8.70
2018-04-13T01:46:12.393Z,8.70
2018-04-13T01:48:40.591Z,8.70
2018-04-13T01:51:08.014Z,8.60
2018-04-13T01:53:36.239Z,8.60
2018-04-13T01:56:03.686Z,8.60
2018-04-13T01:58:31.105Z,8.50
2018-04-13T02:00:59.340Z,8.40
2018-04-13T02:03:26.767Z,8.40
2018-04-13T02:05:54.248Z,8.30
2018-04-13T02:08:21.679Z,8.20
2018-04-13T02:10:49.117Z,8.10
2018-04-13T02:13:17.313Z,8.00
2018-04-13T02:15:44.739Z,8.00
2018-04-13T02:18:12.969Z,8.00
2018-04-13T02:20:40.396Z,8.00
2018-04-13T02:23:07.838Z,8.00
2018-04-13T02:25:36.158Z,7.90
2018-04-13T02:28:03.647Z,7.90
2018-04-13T02:30:31.175Z,7.90
2018-04-13T02:32:58.613Z,7.90
2018-04-13T02:35:26.043Z,7.80
2018-04-13T02:37:54.235Z,7.70
2018-04-13T02:40:21.683Z,7.70
2018-04-13T02:42:49.124Z,7.60
2018-04-13T02:45:17.350Z,7.60
2018-04-13T02:47:44.776Z,7.60
2018-04-13T02:50:12.212Z,7.60
2018-04-13T02:52:40.411Z,7.60
2018-04-13T02:55:07.887Z,7.50
2018-04-13T02:57:35.318Z,7.50
2018-04-13T03:00:02.763Z,7.50
2018-04-13T03:02:30.976Z,7.40
2018-04-13T03:04:58.411Z,7.30
2018-04-13T03:07:25.853Z,7.30
2018-04-13T03:09:54.051Z,7.40
2018-04-13T03:12:21.503Z,7.40
2018-04-13T03:14:48.975Z,7.40
2018-04-13T03:17:16.414Z,7.40
2018-04-13T03:19:43.930Z,7.40
2018-04-13T03:22:12.351Z,7.40
2018-04-13T03:24:40.525Z,7.30
2018-04-13T03:27:07.951Z,7.30
2018-04-13T03:29:35.382Z,7.30
2018-04-13T03:32:02.819Z,7.40
2018-04-13T03:34:30.276Z,7.30
2018-04-13T03:36:57.711Z,7.20
2018-04-13T03:39:25.158Z,7.10
2018-04-13T03:41:53.337Z,7.00
2018-04-13T03:44:20.782Z,7.00
2018-04-13T03:46:48.981Z,6.90
2018-04-13T03:49:16.465Z,6.80
2018-04-13T03:51:43.946Z,6.80
2018-04-13T03:54:11.372Z,6.80
2018-04-13T03:56:38.822Z,6.70
2018-04-13T03:59:06.293Z,6.60
2018-04-13T04:01:33.715Z,6.60
2018-04-13T04:04:01.199Z,6.50
2018-04-13T04:06:28.628Z,6.40
2018-04-13T04:08:56.050Z,6.40
2018-04-13T04:11:24.282Z,6.30
2018-04-13T04:13:51.718Z,6.30
2018-04-13T04:16:19.206Z,6.30
2018-04-13T04:18:46.661Z,6.20
2018-04-13T04:21:25.996Z,6.20
2018-04-13T04:24:05.419Z,6.20
2018-04-13T04:26:50.855Z,6.10
2018-04-13T04:29:18.299Z,6.10
2018-04-13T04:31:45.727Z,6.10
2018-04-13T04:34:13.150Z,6.10
2018-04-13T04:36:40.583Z,6.20
2018-04-13T04:39:08.784Z,6.20
2018-04-13T04:41:36.267Z,6.20
2018-04-13T04:44:03.822Z,6.20
2018-04-13T04:46:31.232Z,6.20
2018-04-13T04:48:59.430Z,6.30
2018-04-13T04:51:26.859Z,6.30
2018-04-13T04:53:54.311Z,6.30
2018-04-13T04:56:21.767Z,6.30
2018-04-13T04:58:49.209Z,6.30
2018-04-13T05:01:16.652Z,6.20
2018-04-13T05:03:44.089Z,6.30
2018-04-13T05:06:11.528Z,6.20
2018-04-13T05:08:39.735Z,6.20
2018-04-13T05:11:07.166Z,6.20
2018-04-13T05:13:34.657Z,6.20
2018-04-13T05:16:02.082Z,6.30
2018-04-13T05:18:29.571Z,6.30
2018-04-13T05:20:57.011Z,6.30
2018-04-13T05:23:24.493Z,6.40
2018-04-13T05:25:51.946Z,6.40
2018-04-13T05:28:19.366Z,6.40
2018-04-13T05:30:46.868Z,6.40
2018-04-13T05:33:14.288Z,6.40
2018-04-13T05:35:41.732Z,6.50
2018-04-13T05:38:09.239Z,6.50
2018-04-13T05:40:36.680Z,6.50
2018-04-13T05:43:04.109Z,6.60
2018-04-13T05:45:31.553Z,6.60
2018-04-13T05:47:59.743Z,6.70
2018-04-13T05:50:27.174Z,6.60
2018-04-13T05:52:55.399Z,6.80
2018-04-13T05:55:22.835Z,6.70
2018-04-13T05:57:50.319Z,6.80
2018-04-13T06:00:17.779Z,6.90
2018-04-13T06:02:45.212Z,7.00
2018-04-13T06:05:12.642Z,7.00
2018-04-13T06:07:40.969Z,7.10
2018-04-13T06:10:08.425Z,7.10
2018-04-13T06:12:35.875Z,7.20
2018-04-13T06:15:03.341Z,7.20
2018-04-13T06:17:30.779Z,7.20
2018-04-13T06:19:58.250Z,7.30
2018-04-13T06:22:25.683Z,7.40
2018-04-13T06:24:53.163Z,7.40
2018-04-13T06:27:20.627Z,7.50
2018-04-13T06:29:48.075Z,7.60
2018-04-13T06:32:15.518Z,7.70
2018-04-13T06:34:42.942Z,7.80
2018-04-13T06:37:11.207Z,8.00
2018-04-13T06:39:38.660Z,8.00
2018-04-13T06:42:06.915Z,8.20
2018-04-13T06:44:34.355Z,8.20
2018-04-13T06:47:01.819Z,8.30
2018-04-13T06:49:29.274Z,8.40
2018-04-13T06:51:56.707Z,8.50
2018-04-13T06:54:24.194Z,8.70
2018-04-13T06:56:51.693Z,8.80
2018-04-13T06:59:19.910Z,9.00
2018-04-13T07:01:47.326Z,9.00
2018-04-13T07:04:15.545Z,9.20
2018-04-13T07:06:42.974Z,9.20
2018-04-13T07:09:10.419Z,9.30
2018-04-13T07:11:38.646Z,9.50
2018-04-13T07:14:06.075Z,9.50
2018-04-13T07:16:33.551Z,9.60
2018-04-13T07:19:00.975Z,9.70
2018-04-13T07:21:28.466Z,9.80
2018-04-13T07:23:55.926Z,9.80
2018-04-13T07:26:23.355Z,9.90
2018-04-13T07:28:50.830Z,10.00
2018-04-13T07:31:18.304Z,10.10
2018-04-13T07:33:45.766Z,10.20
2018-04-13T07:36:13.214Z,10.30
2018-04-13T07:38:40.674Z,10.40
2018-04-13T07:41:08.127Z,10.60
2018-04-13T07:43:35.572Z,10.60
2018-04-13T07:46:03.035Z,10.70
2018-04-13T07:48:30.483Z,10.80
2018-04-13T07:50:57.940Z,11.00
2018-04-13T07:53:25.373Z,11.10
2018-04-13T07:55:52.861Z,11.20
2018-04-13T07:58:20.307Z,11.30
2018-04-13T08:00:47.765Z,11.40
2018-04-13T08:03:15.207Z,11.50
2018-04-13T08:05:42.684Z,11.50
2018-04-13T08:08:10.409Z,11.60
2018-04-13T08:10:37.620Z,11.70
2018-04-13T08:13:05.061Z,11.80
2018-04-13T08:15:32.498Z,11.90
2018-04-13T08:18:00.028Z,12.10
2018-04-13T08:20:27.414Z,12.20
2018-04-13T08:22:54.855Z,12.30
2018-04-13T08:25:22.292Z,12.40
2018-04-13T08:27:50.519Z,12.60
2018-04-13T08:30:17.991Z,12.60
2018-04-13T08:32:45.503Z,12.70
2018-04-13T08:35:12.927Z,12.90
2018-04-13T08:37:41.150Z,13.10
2018-04-13T08:40:08.625Z,13.10
2018-04-13T08:42:36.065Z,13.20
2018-04-13T08:45:03.603Z,13.30
2018-04-13T08:47:31.096Z,13.40
2018-04-13T08:49:58.544Z,13.40
2018-04-13T08:52:26.011Z,13.50
2018-04-13T08:54:53.452Z,13.50
2018-04-13T08:57:20.917Z,13.60
2018-04-13T08:59:48.358Z,13.70
2018-04-13T09:02:15.799Z,13.70
2018-04-13T09:04:44.018Z,13.90
2018-04-13T09:07:11.472Z,13.90
2018-04-13T09:09:38.911Z,14.00
2018-04-13T09:12:06.391Z,14.00
2018-04-13T09:14:39.942Z,14.10
2018-04-13T09:17:07.452Z,14.20
2018-04-13T09:19:34.875Z,14.30
2018-04-13T09:22:02.362Z,14.40
2018-04-13T09:24:29.795Z,14.50
2018-04-13T09:26:57.251Z,14.60
2018-04-13T09:29:24.675Z,14.60
2018-04-13T09:31:52.912Z,14.80
2018-04-13T09:34:20.371Z,14.80
2018-04-13T09:36:47.818Z,14.80
2018-04-13T09:39:15.270Z,14.90
2018-04-13T09:41:42.722Z,15.00
2018-04-13T09:44:10.203Z,15.00
2018-04-13T09:46:37.659Z,15.00
2018-04-13T09:49:05.117Z,15.00
2018-04-13T09:51:32.547Z,15.00
2018-04-13T09:54:00.031Z,15.10
2018-04-13T09:56:27.487Z,15.10
2018-04-13T09:58:54.927Z,15.10
2018-04-13T10:01:22.367Z,15.20
2018-04-13T10:03:49.824Z,15.20
2018-04-13T10:06:17.274Z,15.30
2018-04-13T10:08:45.487Z,15.50
2018-04-13T10:11:12.948Z,15.50
2018-04-13T10:13:41.243Z,15.60
2018-04-13T10:16:08.679Z,15.60
2018-04-13T10:18:37.004Z,15.70
2018-04-13T10:21:05.223Z,15.80
2018-04-13T10:23:32.663Z,15.80
2018-04-13T10:26:00.122Z,15.90
2018-04-13T10:28:27.560Z,16.00
2018-04-13T10:30:55.767Z,16.00
2018-04-13T10:33:23.267Z,16.00
2018-04-13T10:35:50.683Z,16.10
2018-04-13T10:38:18.145Z,16.10
2018-04-13T10:40:45.579Z,16.20
2018-04-13T10:43:13.022Z,16.30
2018-04-13T10:45:41.245Z,16.40
2018-04-13T10:48:08.673Z,16.40
2018-04-13T10:50:36.158Z,16.40
2018-04-13T10:53:03.652Z,16.50
2018-04-13T10:55:31.860Z,16.70
2018-04-13T10:57:59.341Z,16.60
2018-04-13T11:00:26.768Z,16.70
2018-04-13T11:02:54.211Z,16.70
2018-04-13T11:05:22.413Z,16.80
2018-04-13T11:07:49.863Z,16.80
2018-04-13T11:10:17.346Z,16.90
2018-04-13T11:12:45.514Z,16.90
2018-04-13T11:15:12.952Z,16.90
2018-04-13T11:17:40.431Z,16.90
2018-04-13T11:20:07.886Z,16.80
2018-04-13T11:22:35.320Z,16.80
2018-04-13T11:25:02.799Z,16.80
2018-04-13T11:27:30.232Z,16.80
2018-04-13T11:29:57.727Z,16.70
2018-04-13T11:32:25.186Z,16.70
2018-04-13T11:34:52.631Z,16.60
2018-04-13T11:37:20.077Z,16.60
2018-04-13T11:39:47.515Z,16.60
2018-04-13T11:42:14.947Z,16.60
2018-04-13T11:44:43.204Z,16.60
2018-04-13T11:47:10.618Z,16.60
2018-04-13T11:49:38.085Z,16.60
2018-04-13T11:52:05.503Z,16.60
2018-04-13T11:54:33.701Z,16.60
2018-04-13T11:57:01.140Z,16.50
2018-04-13T11:59:29.367Z,16.60
2018-04-13T12:01:56.799Z,16.60
2018-04-13T12:04:24.247Z,16.60
2018-04-13T12:06:51.716Z,16.70
2018-04-13T12:09:19.178Z,16.60
2018-04-13T12:11:46.615Z,16.60
2018-04-13T12:14:14.121Z,16.60
2018-04-13T12:16:41.559Z,16.60
2018-04-13T12:19:09.011Z,16.60
2018-04-13T12:21:36.468Z,16.60
2018-04-13T12:24:03.947Z,16.70
2018-04-13T12:26:31.379Z,16.70
2018-04-13T12:28:58.839Z,16.70
2018-04-13T12:31:26.303Z,16.70
2018-04-13T12:33:53.745Z,16.70
2018-04-13T12:36:21.216Z,16.70
2018-04-13T12:38:48.671Z,16.70
2018-04-13T12:41:16.126Z,16.60
2018-04-13T12:43:43.694Z,16.50
2018-04-13T12:46:11.124Z,16.50
2018-04-13T12:48:38.587Z,16.40
2018-04-13T12:51:06.064Z,16.40
2018-04-13T12:53:33.495Z,16.50
2018-04-13T12:56:00.970Z,16.60
2018-04-13T12:58:28.531Z,16.50
2018-04-13T13:00:55.970Z,16.60
2018-04-13T13:03:23.398Z,16.50
2018-04-13T13:05:51.604Z,16.70
2018-04-13T13:08:19.087Z,16.60
2018-04-13T13:10:46.526Z,16.80
2018-04-13T13:13:13.983Z,17.00
2018-04-13T13:15:41.468Z,17.10
2018-04-13T13:18:08.855Z,17.20
2018-04-13T13:20:37.082Z,17.30
2018-04-13T13:23:04.551Z,17.30
2018-04-13T13:25:31.988Z,17.50
2018-04-13T13:27:59.455Z,17.60
2018-04-13T13:30:26.939Z,17.60
2018-04-13T13:32:54.483Z,17.60
2018-04-13T13:35:21.985Z,17.60
2018-04-13T13:37:50.211Z,17.50
2018-04-13T13:40:17.671Z,17.50
2018-04-13T13:42:45.115Z,17.50
2018-04-13T13:45:12.571Z,17.50
2018-04-13T13:47:40.062Z,17.50
2018-04-13T13:50:07.585Z,17.50
2018-04-13T13:52:35.055Z,17.40
2018-04-13T13:55:02.524Z,17.40
2018-04-13T13:57:29.972Z,17.50
2018-04-13T13:59:57.435Z,17.50
2018-04-13T14:02:24.880Z,17.60
2018-04-13T14:04:52.335Z,17.70
2018-04-13T14:07:19.774Z,18.00
2018-04-13T14:09:47.240Z,18.20
2018-04-13T14:12:14.699Z,18.10
2018-04-13T14:14:42.156Z,18.00
2018-04-13T14:17:09.585Z,17.70
2018-04-13T14:19:37.027Z,17.60
2018-04-13T14:22:05.355Z,17.30
2018-04-13T14:24:32.844Z,17.30
2018-04-13T14:27:00.280Z,17.10
2018-04-13T14:29:27.719Z,17.00
2018-04-13T14:31:55.165Z,16.90
2018-04-13T14:34:22.621Z,16.90
2018-04-13T14:36:50.100Z,16.90
2018-04-13T14:39:17.569Z,16.90
2018-04-13T14:41:45.112Z,16.90
2018-04-13T14:44:12.571Z,16.80
2018-04-13T14:46:40.031Z,16.70
2018-04-13T14:49:07.571Z,16.70
2018-04-13T14:51:35.029Z,16.60
2018-04-13T14:54:02.442Z,16.50
2018-04-13T14:56:30.646Z,16.40
2018-04-13T14:58:58.139Z,16.40
2018-04-13T15:01:25.584Z,16.30
2018-04-13T15:03:53.036Z,16.30
2018-04-13T15:06:20.472Z,16.20
2018-04-13T15:08:48.719Z,16.10
2018-04-13T15:11:16.946Z,16.00
2018-04-13T15:13:44.433Z,16.00
2018-04-13T15:16:11.857Z,16.00
2018-04-13T15:18:39.335Z,16.00
2018-04-13T15:21:06.763Z,16.00
2018-04-13T15:23:34.323Z,16.00
2018-04-13T15:26:01.740Z,15.90
2018-04-13T15:28:29.964Z,15.90
2018-04-13T15:30:57.395Z,15.80
2018-04-13T15:33:24.901Z,15.80
2018-04-13T15:35:52.435Z,15.80
2018-04-13T15:38:19.918Z,15.70
2018-04-13T15:40:47.452Z,15.70
2018-04-13T15:43:14.903Z,15.80
2018-04-13T15:45:42.389Z,15.80
2018-04-13T15:48:09.838Z,15.80
2018-04-13T15:50:37.282Z,15.80
2018-04-13T15:53:04.749Z,15.70
2018-04-13T15:55:32.210Z,15.60
2018-04-13T15:57:59.659Z,15.60
2018-04-13T16:00:27.121Z,15.50
2018-04-13T16:02:54.560Z,15.50
2018-04-13T16:05:22.198Z,15.40
2018-04-13T16:07:50.452Z,15.40
2018-04-13T16:10:18.684Z,15.30
2018-04-13T16:12:46.127Z,15.30
2018-04-13T16:15:13.601Z,15.30
2018-04-13T16:17:41.097Z,15.30
2018-04-13T16:20:08.616Z,15.20
2018-04-13T16:22:36.061Z,15.10
2018-04-13T16:25:03.560Z,15.10
2018-04-13T16:27:30.995Z,15.00
2018-04-13T16:29:58.435Z,14.90
2018-04-13T16:32:25.911Z,14.80
2018-04-13T16:34:53.363Z,14.70
2018-04-13T16:37:21.704Z,14.60
2018-04-13T16:39:49.147Z,14.60
2018-04-13T16:42:17.359Z,14.40
2018-04-13T16:44:44.799Z,14.40
2018-04-13T16:47:12.241Z,14.40
2018-04-13T16:49:40.465Z,14.30
2018-04-13T16:52:07.918Z,14.30
2018-04-13T16:54:35.367Z,14.20
2018-04-13T16:57:02.834Z,14.20
2018-04-13T16:59:30.291Z,14.10
2018-04-13T17:01:57.780Z,14.10
2018-04-13T17:04:25.250Z,14.10
2018-04-13T17:06:53.491Z,14.00
2018-04-13T17:09:20.975Z,14.00
2018-04-13T17:11:48.407Z,14.00
2018-04-13T17:14:15.882Z,14.00
2018-04-13T17:16:43.296Z,14.00
2018-04-13T17:19:10.760Z,14.00
2018-04-13T17:21:38.303Z,13.90
2018-04-13T17:24:05.755Z,13.90
2018-04-13T17:26:33.271Z,13.80
2018-04-13T17:29:01.539Z,13.70
2018-04-13T17:31:28.983Z,13.70
2018-04-13T17:33:56.420Z,13.60
2018-04-13T17:36:23.868Z,13.60
2018-04-13T17:38:51.347Z,13.60
2018-04-13T17:41:18.819Z,13.50
2018-04-13T17:43:46.372Z,13.40
2018-04-13T17:46:13.802Z,13.40
2018-04-13T17:48:41.295Z,13.40
2018-04-13T17:51:08.727Z,13.30
2018-04-13T17:53:36.163Z,13.30
2018-04-13T17:56:03.719Z,13.30
2018-04-13T17:58:31.151Z,13.30
2018-04-13T18:00:59.388Z,13.20
2018-04-13T18:03:26.836Z,13.20
2018-04-13T18:05:54.271Z,13.20
2018-04-13T18:08:21.722Z,13.20
2018-04-13T18:10:49.223Z,13.20
2018-04-13T18:13:16.672Z,13.10
2018-04-13T18:15:44.109Z,13.10
2018-04-13T18:18:11.559Z,13.10
2018-04-13T18:20:39.016Z,13.00
2018-04-13T18:23:06.459Z,13.00
2018-04-13T18:25:34.655Z,13.00
2018-04-13T18:28:02.104Z,13.00
2018-04-13T18:30:29.611Z,13.00
2018-04-13T18:32:57.118Z,13.00
2018-04-13T18:35:25.300Z,13.00
2018-04-13T18:37:52.788Z,13.00
2018-04-13T18:40:20.222Z,12.90
2018-04-13T18:42:47.712Z,12.90
2018-04-13T18:45:15.164Z,12.90
2018-04-13T18:47:42.600Z,12.80
2018-04-13T18:50:10.045Z,12.80
2018-04-13T18:52:37.541Z,12.70
2018-04-13T18:55:04.983Z,12.70
2018-04-13T18:57:32.527Z,12.70
2018-04-13T18:59:59.997Z,12.60
2018-04-13T19:02:27.541Z,12.60
2018-04-13T19:04:54.978Z,12.60
2018-04-13T19:07:22.417Z,12.60
2018-04-13T19:09:50.630Z,12.50
2018-04-13T19:12:18.091Z,12.50
2018-04-13T19:14:45.569Z,12.40
2018-04-13T19:17:18.915Z,12.40
2018-04-13T19:19:46.355Z,12.30
2018-04-13T19:22:14.560Z,12.20
2018-04-13T19:24:41.993Z,12.20
2018-04-13T19:27:10.211Z,12.10
2018-04-13T19:29:37.663Z,12.10
2018-04-13T19:32:05.113Z,12.10
2018-04-13T19:34:32.531Z,12.10
2018-04-13T19:37:00.735Z,12.10
2018-04-13T19:39:28.179Z,12.10
2018-04-13T19:41:56.406Z,12.10
2018-04-13T19:44:23.823Z,12.10
2018-04-13T19:46:51.275Z,12.10
2018-04-13T19:49:18.715Z,12.10
2018-04-13T19:51:46.911Z,12.10
2018-04-13T19:54:14.399Z,12.00
2018-04-13T19:56:41.859Z,12.00
2018-04-13T19:59:09.312Z,11.90
2018-04-13T20:01:37.531Z,11.90
2018-04-13T20:04:04.990Z,11.80
2018-04-13T20:06:32.428Z,11.80
2018-04-13T20:08:59.907Z,11.70
2018-04-13T20:11:27.352Z,11.70
2018-04-13T20:13:54.793Z,11.70
2018-04-13T20:16:22.271Z,11.80
2018-04-13T20:18:49.732Z,11.80
2018-04-13T20:21:17.177Z,11.80
2018-04-13T20:23:44.642Z,11.80
2018-04-13T20:26:12.074Z,11.70
2018-04-13T20:28:39.503Z,11.70
2018-04-13T20:31:07.750Z,11.70
2018-04-13T20:33:35.175Z,11.70
2018-04-13T20:36:02.663Z,11.70
2018-04-13T20:38:30.111Z,11.70
2018-04-13T20:40:57.546Z,11.60
2018-04-13T20:43:25.038Z,11.60
2018-04-13T20:45:52.478Z,11.50
2018-04-13T20:48:20.027Z,11.50
2018-04-13T20:50:47.498Z,11.40
2018-04-13T20:53:14.942Z,11.40
2018-04-13T20:55:42.391Z,11.40
2018-04-13T20:58:09.815Z,11.40
2018-04-13T21:00:38.166Z,11.30
2018-04-13T21:03:05.583Z,11.30
2018-04-13T21:05:33.048Z,11.30
2018-04-13T21:08:00.499Z,11.20
2018-04-13T21:10:27.919Z,11.20
2018-04-13T21:12:56.132Z,11.10
2018-04-13T21:15:23.613Z,11.10
2018-04-13T21:17:51.047Z,11.20
2018-04-13T21:20:18.487Z,11.10
2018-04-13T21:22:45.915Z,11.10
2018-04-13T21:25:14.151Z,11.00
2018-04-13T21:27:41.595Z,11.00
2018-04-13T21:30:09.050Z,11.00
2018-04-13T21:32:36.480Z,11.00
2018-04-13T21:35:03.949Z,10.90
2018-04-13T21:37:31.436Z,11.00
2018-04-13T21:39:58.892Z,11.00
2018-04-13T21:42:26.347Z,10.90
2018-04-13T21:44:53.824Z,10.90
2018-04-13T21:47:21.264Z,10.90
2018-04-13T21:49:48.708Z,10.90
2018-04-13T21:52:16.188Z,10.80
2018-04-13T21:54:43.634Z,10.80
2018-04-13T21:57:11.073Z,10.80
2018-04-13T21:59:38.519Z,10.70
2018-04-13T22:02:05.955Z,10.70
2018-04-13T22:04:34.163Z,10.60
2018-04-13T22:07:01.611Z,10.60
2018-04-13T22:09:29.091Z,10.60
2018-04-13T22:11:56.547Z,10.60
2018-04-13T22:14:35.883Z,10.50
2018-04-13T22:17:03.339Z,10.50
2018-04-13T22:19:30.767Z,10.50
2018-04-13T22:21:58.219Z,10.40
2018-04-13T22:24:26.415Z,10.30
2018-04-13T22:26:53.873Z,10.30
2018-04-13T22:29:21.295Z,10.30
2018-04-13T22:31:49.531Z,10.30
2018-04-13T22:34:16.977Z,10.30
2018-04-13T22:36:44.440Z,10.30
2018-04-13T22:39:11.880Z,10.20
2018-04-13T22:41:39.312Z,10.20
2018-04-13T22:44:06.835Z,10.20
2018-04-13T22:46:34.276Z,10.30
2018-04-13T22:49:01.829Z,10.30
2018-04-13T22:51:29.276Z,10.20
2018-04-13T22:54:04.559Z,10.20
2018-04-13T22:56:31.995Z,10.20
2018-04-13T22:58:59.444Z,10.20
2018-04-13T23:01:26.875Z,10.20
2018-04-13T23:03:54.311Z,10.20
2018-04-13T23:06:22.508Z,10.20
2018-04-13T23:08:49.951Z,10.20
2018-04-13T23:11:17.387Z,10.20
2018-04-13T23:13:45.591Z,10.10
2018-04-13T23:16:13.072Z,10.00
2018-04-13T23:18:40.523Z,10.00
2018-04-13T23:21:08.090Z,10.00
2018-04-13T23:23:35.527Z,9.90
2018-04-13T23:26:07.307Z,9.90
2018-04-13T23:28:34.778Z,9.90
2018-04-13T23:31:02.223Z,9.90
2018-04-13T23:33:29.686Z,9.90
2018-04-13T23:35:57.172Z,9.90
2018-04-13T23:38:24.665Z,9.90
2018-04-13T23:40:52.087Z,9.90
2018-04-13T23:43:20.327Z,10.00
2018-04-13T23:46:00.695Z,9.90
2018-04-13T23:48:28.144Z,10.00
2018-04-13T23:50:55.602Z,9.90
2018-04-13T23:53:29.727Z,10.00
2018-04-13T23:55:57.214Z,10.00
2018-04-13T23:58:24.655Z,10.00
